Historyczne dane pomiarowe

Dodano dane terminowe – wersja testowa.

Dane z okresu 1951-2019

Wersja bazy: 1.34 [2019-03-16, lista zmian], aktualizacja planowana na 2019-04-15

Dane meteo z obszaru Polski uzyskane na podstawie danych udostępnionych przez Instytut Meteorologii i Gospodarki Wodnej – Państwowy Instytut Badawczy.

 

Wybierz Datę:    

       

TemperaturaWilgotnośćWiatrCiśnienieOpadyŚniegCzas trwania zjawisk
 Stacja t tx tn tng RH VA  wxwx mslp ppp RRR   cm mm wxwxwxwxwxwxwx
2019-06-19 19.7 27.6 13.2--- 4.7 2.0---- 3.0------------
2019-06-18 16.4 22.0 9.2--- 6.3 1.3---- 0.0------------
2019-06-17 17.6 20.4 15.5--- 4.3 1.3---- 0.7------------
2019-06-16 21.8 29.8 15.3--- 4.0 2.0---- 4.4------------
2019-06-15 24.7 33.4 16.0--- 1.7 1.7---- 0.0------------
2019-06-14 23.8 30.0 15.8--- 2.7 1.0---- 0.0------------
2019-06-13 24.6 32.5 14.6--- 1.0 2.3---- 0.0------------
2019-06-12 23.1 31.0 13.3--- 1.3 2.7---- 0.0------------
2019-06-11 23.4 30.6 13.5--- 1.0 1.7---- 0.0------------
2019-06-10 21.6 30.1 12.0--- 0.7 2.0---- 0.0------------
2019-06-09 20.0 24.2 14.8--- 2.0 1.7---- 0.0------------
2019-06-08 20.6 28.3 13.0--- 2.7 1.7---- 0.0------------
2019-06-07 19.7 24.7 13.6--- 3.7 1.0---- 0.0------------
2019-06-06 18.4 24.7 10.1--- 3.3 1.3---- 0.0------------
2019-06-05 18.5 25.2 12.1--- 2.3 1.7---- 0.0------------
2019-06-04 19.2 26.4 10.7--- 1.3 1.0---- 0.0------------
2019-06-03 18.4 24.9 9.7--- 1.0 2.0---- 0.0------------
2019-06-02 18.2 24.3 11.3--- 2.3 1.3---- 0.0------------
2019-06-01 15.3 22.7 7.7--- 2.3 1.3---- 0.4------------
2019-05-31 13.3 19.6 8.2--- 3.0 0.7---- 0.0------------
2019-05-30 9.6 11.1 8.1--- 8.0 0.7---- 17.7------------
2019-05-29 12.9 17.8 9.7--- 6.3 1.3---- 2.3------------
2019-05-28 17.5 22.4 11.2--- 4.0 2.3---- 0.3------------
2019-05-27 17.0 24.3 8.9--- 5.7 1.3---- 4.5------------
2019-05-26 16.0 22.7 9.7--- 2.3 1.0---- 0.0------------
2019-05-25 15.7 21.7 10.7--- 3.7 1.0---- 0.0------------
2019-05-24 11.7 13.8 9.5--- 8.0 0.7---- 2.7------------
2019-05-23 12.1 13.8 11.0--- 8.0 2.0---- 22.4------------
2019-05-22 14.0 18.0 11.7--- 7.7 1.0---- 16.3------------
2019-05-21 13.0 18.2 8.6--- 8.0 1.3---- 14.7------------
2019-05-20 16.8 21.5 10.4--- 4.0 3.0---- 0.0------------
2019-05-19 15.6 23.4 7.0--- 1.3 0.7---- 0.0------------
2019-05-18 15.4 23.7 7.2--- 3.0 1.3---- 0.0------------
2019-05-17 14.4 20.2 8.7--- 4.0 1.3---- 1.6------------
2019-05-16 12.4 18.0 7.7--- 6.3 1.3---- 0.0------------
2019-05-15 7.2 9.6 4.3--- 8.0 0.3---- 6.0------------
2019-05-14 4.1 7.9 1.0--- 8.0 0.3---- 17.2------------
2019-05-13 8.3 10.9 6.7--- 8.0 0.7---- 5.4------------
2019-05-12 11.9 19.9 6.3--- 7.3 1.7---- 1.5------------
2019-05-11 13.2 19.6 6.4--- 5.7 1.0---- 0.0------------
2019-05-10 11.3 16.8 6.4--- 5.7 1.0---- 1.4------------
2019-05-09 8.8 11.6 5.2--- 7.7 2.7---- 5.5------------
2019-05-08 8.1 14.8 0.2--- 3.0 1.7---- 0.0------------
2019-05-07 7.2 10.9 2.8--- 6.7 2.7---- 0.0------------
2019-05-06 4.6 6.8 3.0--- 7.7 2.0---- 0.9------------
2019-05-05 6.0 10.4 3.8--- 8.0 0.7---- 9.5------------
2019-05-04 8.2 15.3 0.8--- 4.7 0.7---- 1.3------------
2019-05-03 9.7 15.9 5.7--- 7.7 1.0---- 13.4------------
2019-05-02 13.4 19.8 6.7--- 4.3 3.7---- 0.0------------
2019-05-01 11.8 16.5 7.5--- 3.7 2.0---- 1.0------------
2019-04-30 10.4 11.7 8.7--- 8.0 1.3---- 10.4------------
2019-04-29 9.8 12.8 6.9--- 8.0 0.7---- 1.9------------
2019-04-28 9.1 11.4 7.7--- 8.0 1.0---- 8.1------------
2019-04-27 13.4 21.2 9.2--- 8.0 0.7---- 25.5------------
2019-04-26 17.1 28.1 5.5--- 4.0 2.0---- 1.4------------
2019-04-25 17.9 23.9 10.6--- 2.3 3.0---- 0.0------------
2019-04-24 13.1 16.0 10.1--- 6.0 2.0---- 0.0------------
2019-04-23 10.6 15.0 5.1--- 6.7 4.3---- 0.0------------
2019-04-22 8.9 14.5 3.3--- 5.3 2.3---- 0.7------------
2019-04-21 9.3 17.3 1.3--- 2.0 2.3---- 0.0------------
1151.8 ms

 

Źródłem pochodzenia danych jest Instytut Meteorologii i Gospodarki Wodnej – Państwowy Instytut Badawczy. Dane Instytutu Meteorologii i Gospodarki Wodnej – Państwowego Instytutu Badawczego zostały przetworzone.

Dane źródłowe można odnaleźć na stronie https://dane.imgw.pl